sensor_id;sensor_type;location;lat;lon;timestamp;pressure;altitude;pressure_sealevel;temperature;humidity
68873;BME280;55907;50.806;12.882;2024-01-15T00:02:17;955.5;;;0.9;74.6
68873;BME280;55907;50.806;12.882;2024-01-15T00:05:18;955.4;;;0.8;74.9
68873;BME280;55907;50.806;12.882;2024-01-15T00:08:18;955.4;;;0.9;75.7
68873;BME280;55907;50.806;12.882;2024-01-15T00:11:19;955.2;;;0.8;75.8
68873;BME280;55907;50.806;12.882;2024-01-15T00:14:20;955.1;;;0.8;75.4
68873;BME280;55907;50.806;12.882;2024-01-15T00:17:21;955.2;;;0.9;74.9
68873;BME280;55907;50.806;12.882;2024-01-15T00:20:22;955.3;;;0.9;75.0
68873;BME280;55907;50.806;12.882;2024-01-15T00:23:23;955.3;;;0.9;75.3
68873;BME280;55907;50.806;12.882;2024-01-15T00:26:23;955.2;;;0.8;74.8
68873;BME280;55907;50.806;12.882;2024-01-15T00:29:24;955.2;;;0.8;74.9
68873;BME280;55907;50.806;12.882;2024-01-15T00:32:25;955.2;;;0.8;74.7
68873;BME280;55907;50.806;12.882;2024-01-15T00:35:26;955.2;;;0.8;75.0
68873;BME280;55907;50.806;12.882;2024-01-15T00:38:27;955.1;;;0.9;74.3
68873;BME280;55907;50.806;12.882;2024-01-15T00:41:28;955.1;;;0.8;78.6
68873;BME280;55907;50.806;12.882;2024-01-15T00:44:28;955.1;;;0.8;75.2
68873;BME280;55907;50.806;12.882;2024-01-15T00:47:29;955.1;;;0.7;75.6
68873;BME280;55907;50.806;12.882;2024-01-15T00:50:30;955.2;;;0.8;75.0
68873;BME280;55907;50.806;12.882;2024-01-15T00:53:31;955.1;;;0.9;74.8
68873;BME280;55907;50.806;12.882;2024-01-15T00:56:32;955.1;;;0.8;74.9
68873;BME280;55907;50.806;12.882;2024-01-15T00:59:33;955.0;;;0.8;74.8
68873;BME280;55907;50.806;12.882;2024-01-15T01:02:34;955.1;;;0.9;75.1
68873;BME280;55907;50.806;12.882;2024-01-15T01:05:35;955.0;;;0.7;79.0
68873;BME280;55907;50.806;12.882;2024-01-15T01:08:35;955.1;;;0.5;81.0
68873;BME280;55907;50.806;12.882;2024-01-15T01:11:36;954.9;;;0.4;80.0
68873;BME280;55907;50.806;12.882;2024-01-15T01:14:37;954.9;;;0.6;78.3
68873;BME280;55907;50.806;12.882;2024-01-15T01:17:38;954.9;;;0.6;77.4
68873;BME280;55907;50.806;12.882;2024-01-15T01:20:39;954.8;;;0.4;77.7
68873;BME280;55907;50.806;12.882;2024-01-15T01:23:39;954.7;;;0.2;78.4
68873;BME280;55907;50.806;12.882;2024-01-15T01:26:40;954.6;;;0.3;78.4
68873;BME280;55907;50.806;12.882;2024-01-15T01:29:41;954.6;;;0.3;77.8
68873;BME280;55907;50.806;12.882;2024-01-15T01:32:42;954.5;;;0.4;77.3
68873;BME280;55907;50.806;12.882;2024-01-15T01:35:43;954.5;;;0.3;77.2
68873;BME280;55907;50.806;12.882;2024-01-15T01:38:44;954.5;;;0.3;77.0
68873;BME280;55907;50.806;12.882;2024-01-15T01:41:44;954.3;;;0.3;76.5
68873;BME280;55907;50.806;12.882;2024-01-15T01:44:45;954.3;;;0.3;76.3
68873;BME280;55907;50.806;12.882;2024-01-15T01:47:46;954.2;;;0.1;76.2
68873;BME280;55907;50.806;12.882;2024-01-15T01:50:47;954.2;;;0.1;76.3
68873;BME280;55907;50.806;12.882;2024-01-15T01:53:48;954.2;;;0.1;76.2
68873;BME280;55907;50.806;12.882;2024-01-15T01:56:49;954.4;;;0.2;75.8
68873;BME280;55907;50.806;12.882;2024-01-15T01:59:50;954.7;;;0.1;75.8
68873;BME280;55907;50.806;12.882;2024-01-15T02:02:50;954.8;;;0.2;75.6
68873;BME280;55907;50.806;12.882;2024-01-15T02:05:52;954.7;;;0.3;75.1
68873;BME280;55907;50.806;12.882;2024-01-15T02:08:52;954.8;;;0.3;74.9
68873;BME280;55907;50.806;12.882;2024-01-15T02:11:53;954.8;;;0.1;74.6
68873;BME280;55907;50.806;12.882;2024-01-15T02:14:53;954.9;;;0.1;74.9
68873;BME280;55907;50.806;12.882;2024-01-15T02:17:59;954.8;;;0.1;74.9
68873;BME280;55907;50.806;12.882;2024-01-15T02:20:55;954.8;;;0.1;74.7
68873;BME280;55907;50.806;12.882;2024-01-15T02:23:56;954.7;;;0.2;74.5
68873;BME280;55907;50.806;12.882;2024-01-15T02:26:57;954.8;;;0.2;74.6
68873;BME280;55907;50.806;12.882;2024-01-15T02:29:58;954.7;;;0.2;74.6
68873;BME280;55907;50.806;12.882;2024-01-15T02:32:58;954.8;;;0.2;74.5
68873;BME280;55907;50.806;12.882;2024-01-15T02:35:59;954.6;;;0.1;74.6
68873;BME280;55907;50.806;12.882;2024-01-15T02:39:00;954.8;;;0.1;74.8
68873;BME280;55907;50.806;12.882;2024-01-15T02:42:01;954.9;;;0.0;74.9
68873;BME280;55907;50.806;12.882;2024-01-15T02:45:02;954.9;;;-0.1;75.3
68873;BME280;55907;50.806;12.882;2024-01-15T02:48:03;954.9;;;-0.1;75.4
68873;BME280;55907;50.806;12.882;2024-01-15T02:51:04;954.8;;;-0.1;75.4
68873;BME280;55907;50.806;12.882;2024-01-15T02:54:04;954.8;;;-0.1;75.3
68873;BME280;55907;50.806;12.882;2024-01-15T02:57:05;954.7;;;-0.1;75.4
68873;BME280;55907;50.806;12.882;2024-01-15T03:00:07;954.8;;;-0.1;75.2
68873;BME280;55907;50.806;12.882;2024-01-15T03:03:07;954.9;;;-0.1;75.2
68873;BME280;55907;50.806;12.882;2024-01-15T03:06:07;954.8;;;-0.2;75.4
68873;BME280;55907;50.806;12.882;2024-01-15T03:09:08;954.9;;;-0.5;79.3
68873;BME280;55907;50.806;12.882;2024-01-15T03:12:09;954.8;;;-0.7;86.4
68873;BME280;55907;50.806;12.882;2024-01-15T03:15:10;954.8;;;-0.6;90.1
68873;BME280;55907;50.806;12.882;2024-01-15T03:18:11;954.8;;;-0.5;82.2
68873;BME280;55907;50.806;12.882;2024-01-15T03:21:12;954.7;;;-0.6;80.2
68873;BME280;55907;50.806;12.882;2024-01-15T03:24:12;954.8;;;-0.5;80.0
68873;BME280;55907;50.806;12.882;2024-01-15T03:27:13;954.7;;;-0.5;79.4
68873;BME280;55907;50.806;12.882;2024-01-15T03:30:14;954.7;;;-0.5;79.2
68873;BME280;55907;50.806;12.882;2024-01-15T03:33:15;954.7;;;-0.7;81.1
68873;BME280;55907;50.806;12.882;2024-01-15T03:36:16;954.7;;;-0.6;78.6
68873;BME280;55907;50.806;12.882;2024-01-15T03:39:16;954.6;;;-0.6;78.5
68873;BME280;55907;50.806;12.882;2024-01-15T03:42:17;954.6;;;-0.5;77.6
68873;BME280;55907;50.806;12.882;2024-01-15T03:45:18;954.7;;;-0.6;77.3
68873;BME280;55907;50.806;12.882;2024-01-15T03:48:19;954.7;;;-0.5;77.6
68873;BME280;55907;50.806;12.882;2024-01-15T03:51:20;954.8;;;-0.5;77.0
68873;BME280;55907;50.806;12.882;2024-01-15T03:54:21;954.7;;;-0.6;77.1
68873;BME280;55907;50.806;12.882;2024-01-15T03:57:21;954.8;;;-0.5;76.7
68873;BME280;55907;50.806;12.882;2024-01-15T04:00:22;954.7;;;-0.6;76.7
68873;BME280;55907;50.806;12.882;2024-01-15T04:03:23;954.7;;;-0.6;76.7
68873;BME280;55907;50.806;12.882;2024-01-15T04:06:24;954.6;;;-0.6;76.7
68873;BME280;55907;50.806;12.882;2024-01-15T04:09:25;954.7;;;-0.7;76.9
68873;BME280;55907;50.806;12.882;2024-01-15T04:12:26;954.7;;;-0.7;77.1
68873;BME280;55907;50.806;12.882;2024-01-15T04:15:26;954.7;;;-0.8;77.1
68873;BME280;55907;50.806;12.882;2024-01-15T04:18:27;954.6;;;-0.7;76.8
68873;BME280;55907;50.806;12.882;2024-01-15T04:21:28;954.6;;;-0.6;76.5
68873;BME280;55907;50.806;12.882;2024-01-15T04:24:31;954.7;;;-0.7;77.0
68873;BME280;55907;50.806;12.882;2024-01-15T04:27:30;954.6;;;-0.7;77.2
68873;BME280;55907;50.806;12.882;2024-01-15T04:30:31;954.7;;;-0.8;76.9
68873;BME280;55907;50.806;12.882;2024-01-15T04:33:31;954.7;;;-0.7;77.0
68873;BME280;55907;50.806;12.882;2024-01-15T04:36:38;954.8;;;-0.7;77.2
68873;BME280;55907;50.806;12.882;2024-01-15T04:39:33;954.6;;;-0.7;76.9
68873;BME280;55907;50.806;12.882;2024-01-15T04:42:34;954.6;;;-0.6;76.8
68873;BME280;55907;50.806;12.882;2024-01-15T04:45:35;954.6;;;-0.6;76.9
68873;BME280;55907;50.806;12.882;2024-01-15T04:48:36;954.5;;;-0.7;77.0
68873;BME280;55907;50.806;12.882;2024-01-15T04:51:36;954.6;;;-0.7;77.2
68873;BME280;55907;50.806;12.882;2024-01-15T04:54:37;954.6;;;-0.7;77.8
68873;BME280;55907;50.806;12.882;2024-01-15T04:57:38;954.8;;;-0.8;77.4
68873;BME280;55907;50.806;12.882;2024-01-15T05:00:39;954.9;;;-0.9;77.8
68873;BME280;55907;50.806;12.882;2024-01-15T05:03:40;954.7;;;-0.8;78.2
68873;BME280;55907;50.806;12.882;2024-01-15T05:06:41;954.8;;;-0.8;77.7
68873;BME280;55907;50.806;12.882;2024-01-15T05:09:41;954.8;;;-0.8;77.8
68873;BME280;55907;50.806;12.882;2024-01-15T05:12:42;954.7;;;-0.8;77.3
68873;BME280;55907;50.806;12.882;2024-01-15T05:15:43;954.8;;;-0.8;77.1
68873;BME280;55907;50.806;12.882;2024-01-15T05:18:44;954.8;;;-0.8;76.9
68873;BME280;55907;50.806;12.882;2024-01-15T05:21:45;954.9;;;-0.7;76.6
68873;BME280;55907;50.806;12.882;2024-01-15T05:24:46;954.8;;;-0.8;76.6
68873;BME280;55907;50.806;12.882;2024-01-15T05:27:46;954.7;;;-0.8;76.6
68873;BME280;55907;50.806;12.882;2024-01-15T05:30:47;954.9;;;-0.6;76.1
68873;BME280;55907;50.806;12.882;2024-01-15T05:33:48;954.9;;;-0.7;76.3
68873;BME280;55907;50.806;12.882;2024-01-15T05:36:49;955.0;;;-0.7;76.1
68873;BME280;55907;50.806;12.882;2024-01-15T05:42:51;955.0;;;-0.7;75.9
68873;BME280;55907;50.806;12.882;2024-01-15T05:45:52;955.0;;;-0.6;75.6
68873;BME280;55907;50.806;12.882;2024-01-15T05:48:52;955.0;;;-0.6;75.5
68873;BME280;55907;50.806;12.882;2024-01-15T05:51:53;954.9;;;-0.5;75.1
68873;BME280;55907;50.806;12.882;2024-01-15T05:54:54;954.8;;;-0.4;74.9
68873;BME280;55907;50.806;12.882;2024-01-15T05:57:55;954.8;;;-0.3;74.6
68873;BME280;55907;50.806;12.882;2024-01-15T06:03:57;954.7;;;-0.4;74.5
68873;BME280;55907;50.806;12.882;2024-01-15T06:06:57;954.7;;;-0.4;74.3
68873;BME280;55907;50.806;12.882;2024-01-15T06:09:58;954.7;;;-0.5;74.2
68873;BME280;55907;50.806;12.882;2024-01-15T06:12:59;954.7;;;-0.4;74.2
68873;BME280;55907;50.806;12.882;2024-01-15T06:16:00;954.7;;;-0.5;74.2
68873;BME280;55907;50.806;12.882;2024-01-15T06:19:01;954.7;;;-0.6;74.6
68873;BME280;55907;50.806;12.882;2024-01-15T06:22:02;954.7;;;-0.5;74.5
68873;BME280;55907;50.806;12.882;2024-01-15T06:25:03;954.6;;;-0.6;74.4
68873;BME280;55907;50.806;12.882;2024-01-15T06:28:03;954.5;;;-0.7;74.9
68873;BME280;55907;50.806;12.882;2024-01-15T06:34:05;954.5;;;-0.7;75.1
68873;BME280;55907;50.806;12.882;2024-01-15T06:37:06;954.5;;;-0.7;75.2
68873;BME280;55907;50.806;12.882;2024-01-15T06:40:07;954.6;;;-0.7;75.4
68873;BME280;55907;50.806;12.882;2024-01-15T06:43:07;954.6;;;-0.6;75.2
68873;BME280;55907;50.806;12.882;2024-01-15T06:46:08;954.5;;;-0.6;74.8
68873;BME280;55907;50.806;12.882;2024-01-15T06:49:09;954.5;;;-0.6;74.8
68873;BME280;55907;50.806;12.882;2024-01-15T06:52:10;954.5;;;-0.6;74.8
68873;BME280;55907;50.806;12.882;2024-01-15T06:55:11;954.4;;;-0.6;74.9
68873;BME280;55907;50.806;12.882;2024-01-15T06:58:12;954.6;;;-0.6;75.0
68873;BME280;55907;50.806;12.882;2024-01-15T07:01:12;954.7;;;-0.6;74.6
68873;BME280;55907;50.806;12.882;2024-01-15T07:04:13;954.6;;;-0.6;74.5
68873;BME280;55907;50.806;12.882;2024-01-15T07:07:14;954.6;;;-0.6;74.6
68873;BME280;55907;50.806;12.882;2024-01-15T07:10:15;954.5;;;-0.7;74.8
68873;BME280;55907;50.806;12.882;2024-01-15T07:13:16;954.6;;;-0.9;75.2
68873;BME280;55907;50.806;12.882;2024-01-15T07:16:17;954.6;;;-0.7;75.0
68873;BME280;55907;50.806;12.882;2024-01-15T07:19:18;954.8;;;-0.8;75.0
68873;BME280;55907;50.806;12.882;2024-01-15T07:22:18;954.5;;;-0.8;75.0
68873;BME280;55907;50.806;12.882;2024-01-15T07:25:19;954.6;;;-0.7;74.5
68873;BME280;55907;50.806;12.882;2024-01-15T07:28:20;954.6;;;-0.6;74.2
68873;BME280;55907;50.806;12.882;2024-01-15T07:31:21;954.7;;;-0.7;74.2
68873;BME280;55907;50.806;12.882;2024-01-15T07:34:22;954.8;;;-0.6;74.2
68873;BME280;55907;50.806;12.882;2024-01-15T07:37:22;954.9;;;-0.7;74.4
68873;BME280;55907;50.806;12.882;2024-01-15T07:40:23;954.9;;;-0.7;74.3
68873;BME280;55907;50.806;12.882;2024-01-15T07:43:24;954.9;;;-0.6;73.9
68873;BME280;55907;50.806;12.882;2024-01-15T07:46:25;955.0;;;-0.6;73.9
68873;BME280;55907;50.806;12.882;2024-01-15T07:49:26;954.9;;;-0.7;73.8
68873;BME280;55907;50.806;12.882;2024-01-15T07:52:27;955.0;;;-0.7;74.2
68873;BME280;55907;50.806;12.882;2024-01-15T07:55:28;954.9;;;-0.6;73.6
68873;BME280;55907;50.806;12.882;2024-01-15T07:58:28;954.8;;;-0.5;73.0
68873;BME280;55907;50.806;12.882;2024-01-15T08:01:29;954.8;;;-0.4;72.5
68873;BME280;55907;50.806;12.882;2024-01-15T08:04:30;954.7;;;-0.3;72.5
68873;BME280;55907;50.806;12.882;2024-01-15T08:07:31;954.9;;;-0.3;71.8
68873;BME280;55907;50.806;12.882;2024-01-15T08:10:32;954.9;;;-0.3;71.9
68873;BME280;55907;50.806;12.882;2024-01-15T08:16:34;954.9;;;-0.1;71.3
68873;BME280;55907;50.806;12.882;2024-01-15T08:19:34;954.9;;;-0.2;70.7
68873;BME280;55907;50.806;12.882;2024-01-15T08:22:35;954.9;;;-0.1;70.7
68873;BME280;55907;50.806;12.882;2024-01-15T08:25:36;955.0;;;0.0;70.7
68873;BME280;55907;50.806;12.882;2024-01-15T08:28:37;955.1;;;0.2;69.9
68873;BME280;55907;50.806;12.882;2024-01-15T08:31:38;954.9;;;0.1;69.8
68873;BME280;55907;50.806;12.882;2024-01-15T08:34:39;954.9;;;0.1;69.7
68873;BME280;55907;50.806;12.882;2024-01-15T08:37:39;954.9;;;0.3;69.4
68873;BME280;55907;50.806;12.882;2024-01-15T08:40:40;954.8;;;0.3;68.8
68873;BME280;55907;50.806;12.882;2024-01-15T08:43:41;954.9;;;0.3;69.0
68873;BME280;55907;50.806;12.882;2024-01-15T08:46:42;954.8;;;0.4;68.3
68873;BME280;55907;50.806;12.882;2024-01-15T08:49:43;954.9;;;0.5;68.1
68873;BME280;55907;50.806;12.882;2024-01-15T08:52:44;955.0;;;0.3;68.3
68873;BME280;55907;50.806;12.882;2024-01-15T08:55:45;954.8;;;0.2;68.7
68873;BME280;55907;50.806;12.882;2024-01-15T08:58:47;954.9;;;0.4;68.7
68873;BME280;55907;50.806;12.882;2024-01-15T09:01:46;954.9;;;0.2;68.7
68873;BME280;55907;50.806;12.882;2024-01-15T09:04:47;954.8;;;0.4;68.5
68873;BME280;55907;50.806;12.882;2024-01-15T09:07:48;954.8;;;0.3;67.8
68873;BME280;55907;50.806;12.882;2024-01-15T09:10:49;954.9;;;0.2;68.5
68873;BME280;55907;50.806;12.882;2024-01-15T09:13:49;955.0;;;0.4;68.4
68873;BME280;55907;50.806;12.882;2024-01-15T09:16:50;955.0;;;0.3;68.2
68873;BME280;55907;50.806;12.882;2024-01-15T09:19:51;955.0;;;0.4;67.9
68873;BME280;55907;50.806;12.882;2024-01-15T09:22:52;955.0;;;0.5;68.0
68873;BME280;55907;50.806;12.882;2024-01-15T09:25:53;954.9;;;0.7;67.2
68873;BME280;55907;50.806;12.882;2024-01-15T09:28:54;954.9;;;1.0;65.8
68873;BME280;55907;50.806;12.882;2024-01-15T09:31:54;955.0;;;1.3;65.1
68873;BME280;55907;50.806;12.882;2024-01-15T09:34:55;955.0;;;1.2;65.3
68873;BME280;55907;50.806;12.882;2024-01-15T09:37:56;955.0;;;1.0;65.7
68873;BME280;55907;50.806;12.882;2024-01-15T09:40:57;954.9;;;1.0;65.8
68873;BME280;55907;50.806;12.882;2024-01-15T09:43:58;955.0;;;1.1;65.8
68873;BME280;55907;50.806;12.882;2024-01-15T09:46:59;954.9;;;1.0;65.8
68873;BME280;55907;50.806;12.882;2024-01-15T09:49:59;955.0;;;1.1;66.1
68873;BME280;55907;50.806;12.882;2024-01-15T09:53:01;955.1;;;1.0;65.9
68873;BME280;55907;50.806;12.882;2024-01-15T09:56:01;955.0;;;0.9;66.2
68873;BME280;55907;50.806;12.882;2024-01-15T09:59:02;955.0;;;0.9;66.7
68873;BME280;55907;50.806;12.882;2024-01-15T10:05:04;955.0;;;0.9;66.6
68873;BME280;55907;50.806;12.882;2024-01-15T10:08:05;955.1;;;0.9;66.7
68873;BME280;55907;50.806;12.882;2024-01-15T10:11:05;954.9;;;0.9;66.9
68873;BME280;55907;50.806;12.882;2024-01-15T10:14:06;954.9;;;1.0;66.6
68873;BME280;55907;50.806;12.882;2024-01-15T10:17:14;955.0;;;0.9;66.3
68873;BME280;55907;50.806;12.882;2024-01-15T10:20:09;954.8;;;1.1;66.4
68873;BME280;55907;50.806;12.882;2024-01-15T10:23:09;954.9;;;1.3;65.9
68873;BME280;55907;50.806;12.882;2024-01-15T10:26:10;954.8;;;1.4;65.4
68873;BME280;55907;50.806;12.882;2024-01-15T10:29:10;954.7;;;1.8;64.5
68873;BME280;55907;50.806;12.882;2024-01-15T10:32:12;954.7;;;3.2;61.3
68873;BME280;55907;50.806;12.882;2024-01-15T10:35:12;954.7;;;4.1;57.3
68873;BME280;55907;50.806;12.882;2024-01-15T10:38:13;954.6;;;4.1;56.7
68873;BME280;55907;50.806;12.882;2024-01-15T10:41:14;954.5;;;4.0;56.3
68873;BME280;55907;50.806;12.882;2024-01-15T10:44:14;954.6;;;3.5;56.5
68873;BME280;55907;50.806;12.882;2024-01-15T10:47:15;954.6;;;3.7;57.4
68873;BME280;55907;50.806;12.882;2024-01-15T10:53:17;954.5;;;3.4;57.4
68873;BME280;55907;50.806;12.882;2024-01-15T10:56:18;954.5;;;3.1;58.3
68873;BME280;55907;50.806;12.882;2024-01-15T10:59:20;954.6;;;2.9;59.3
68873;BME280;55907;50.806;12.882;2024-01-15T11:02:19;954.6;;;2.6;59.9
68873;BME280;55907;50.806;12.882;2024-01-15T11:05:20;954.6;;;2.4;60.3
68873;BME280;55907;50.806;12.882;2024-01-15T11:08:21;954.5;;;2.4;60.6
68873;BME280;55907;50.806;12.882;2024-01-15T11:11:21;954.6;;;2.5;60.3
68873;BME280;55907;50.806;12.882;2024-01-15T11:14:33;954.6;;;2.8;60.5
68873;BME280;55907;50.806;12.882;2024-01-15T11:17:23;954.6;;;3.0;59.3
68873;BME280;55907;50.806;12.882;2024-01-15T11:20:24;954.5;;;2.9;59.1
68873;BME280;55907;50.806;12.882;2024-01-15T11:23:43;954.5;;;2.7;59.5
68873;BME280;55907;50.806;12.882;2024-01-15T11:26:34;954.5;;;2.7;60.0
68873;BME280;55907;50.806;12.882;2024-01-15T11:29:31;954.5;;;2.7;60.1
68873;BME280;55907;50.806;12.882;2024-01-15T11:32:33;954.4;;;2.6;60.3
68873;BME280;55907;50.806;12.882;2024-01-15T11:35:47;954.4;;;2.4;61.0
68873;BME280;55907;50.806;12.882;2024-01-15T11:38:29;954.4;;;2.3;60.9
68873;BME280;55907;50.806;12.882;2024-01-15T11:41:30;954.3;;;2.3;61.1
68873;BME280;55907;50.806;12.882;2024-01-15T11:44:31;954.4;;;2.4;60.8
68873;BME280;55907;50.806;12.882;2024-01-15T11:47:57;954.4;;;2.4;60.8
68873;BME280;55907;50.806;12.882;2024-01-15T11:50:33;954.4;;;2.5;61.2
68873;BME280;55907;50.806;12.882;2024-01-15T11:53:36;954.3;;;2.3;61.1
68873;BME280;55907;50.806;12.882;2024-01-15T11:56:34;954.4;;;2.1;61.6
68873;BME280;55907;50.806;12.882;2024-01-15T11:59:35;954.3;;;2.0;62.2
68873;BME280;55907;50.806;12.882;2024-01-15T12:02:35;954.4;;;2.0;62.3
68873;BME280;55907;50.806;12.882;2024-01-15T12:05:37;954.4;;;2.0;62.4
68873;BME280;55907;50.806;12.882;2024-01-15T12:08:37;954.5;;;1.9;63.0
68873;BME280;55907;50.806;12.882;2024-01-15T12:11:41;954.4;;;1.9;62.8
68873;BME280;55907;50.806;12.882;2024-01-15T12:14:39;954.5;;;1.8;63.2
68873;BME280;55907;50.806;12.882;2024-01-15T12:17:39;954.4;;;1.9;63.0
68873;BME280;55907;50.806;12.882;2024-01-15T12:20:41;954.4;;;1.9;63.0
68873;BME280;55907;50.806;12.882;2024-01-15T12:23:41;954.4;;;1.8;63.2
68873;BME280;55907;50.806;12.882;2024-01-15T12:26:42;954.5;;;1.8;63.7
68873;BME280;55907;50.806;12.882;2024-01-15T12:29:43;954.4;;;1.8;63.8
68873;BME280;55907;50.806;12.882;2024-01-15T12:32:44;954.5;;;1.8;64.0
68873;BME280;55907;50.806;12.882;2024-01-15T12:35:44;954.5;;;1.8;63.7
68873;BME280;55907;50.806;12.882;2024-01-15T12:38:45;954.4;;;1.7;64.0
68873;BME280;55907;50.806;12.882;2024-01-15T12:41:46;954.5;;;1.8;64.3
68873;BME280;55907;50.806;12.882;2024-01-15T12:44:47;954.4;;;1.8;64.3
68873;BME280;55907;50.806;12.882;2024-01-15T12:47:48;954.3;;;1.7;64.4
68873;BME280;55907;50.806;12.882;2024-01-15T12:50:52;954.3;;;1.6;64.4
68873;BME280;55907;50.806;12.882;2024-01-15T12:53:49;954.3;;;1.6;64.6
68873;BME280;55907;50.806;12.882;2024-01-15T12:56:50;954.3;;;1.6;64.6
68873;BME280;55907;50.806;12.882;2024-01-15T12:59:51;954.2;;;1.6;64.6
68873;BME280;55907;50.806;12.882;2024-01-15T13:02:52;954.2;;;1.9;64.0
68873;BME280;55907;50.806;12.882;2024-01-15T13:05:53;954.2;;;1.8;63.8
68873;BME280;55907;50.806;12.882;2024-01-15T13:08:53;954.2;;;1.7;64.0
68873;BME280;55907;50.806;12.882;2024-01-15T13:11:54;954.2;;;1.7;64.4
68873;BME280;55907;50.806;12.882;2024-01-15T13:14:55;954.3;;;1.6;64.5
68873;BME280;55907;50.806;12.882;2024-01-15T13:17:56;954.3;;;1.5;65.0
68873;BME280;55907;50.806;12.882;2024-01-15T13:20:57;954.3;;;1.5;65.5
68873;BME280;55907;50.806;12.882;2024-01-15T13:23:57;954.3;;;1.6;65.6
68873;BME280;55907;50.806;12.882;2024-01-15T13:26:58;954.4;;;1.5;65.6
68873;BME280;55907;50.806;12.882;2024-01-15T13:29:59;954.3;;;1.4;65.4
68873;BME280;55907;50.806;12.882;2024-01-15T13:33:00;954.4;;;1.4;65.9
68873;BME280;55907;50.806;12.882;2024-01-15T13:36:01;954.3;;;1.4;66.0
68873;BME280;55907;50.806;12.882;2024-01-15T13:39:02;954.4;;;1.5;66.3
68873;BME280;55907;50.806;12.882;2024-01-15T13:42:03;954.3;;;1.4;67.2
68873;BME280;55907;50.806;12.882;2024-01-15T13:45:04;954.4;;;1.3;67.9
68873;BME280;55907;50.806;12.882;2024-01-15T13:48:04;954.4;;;1.3;69.3
68873;BME280;55907;50.806;12.882;2024-01-15T13:51:05;954.3;;;1.3;68.4
68873;BME280;55907;50.806;12.882;2024-01-15T13:54:06;954.4;;;1.4;68.1
68873;BME280;55907;50.806;12.882;2024-01-15T13:57:07;954.4;;;1.4;68.2
68873;BME280;55907;50.806;12.882;2024-01-15T14:00:08;954.4;;;1.5;68.1
68873;BME280;55907;50.806;12.882;2024-01-15T14:03:08;954.4;;;1.5;67.8
68873;BME280;55907;50.806;12.882;2024-01-15T14:06:09;954.4;;;1.3;68.1
68873;BME280;55907;50.806;12.882;2024-01-15T14:09:10;954.4;;;1.2;68.5
68873;BME280;55907;50.806;12.882;2024-01-15T14:15:11;954.5;;;1.0;69.4
68873;BME280;55907;50.806;12.882;2024-01-15T14:18:12;954.5;;;1.1;69.5
68873;BME280;55907;50.806;12.882;2024-01-15T14:21:13;954.5;;;1.0;69.5
68873;BME280;55907;50.806;12.882;2024-01-15T14:24:14;954.5;;;1.1;69.4
68873;BME280;55907;50.806;12.882;2024-01-15T14:27:15;954.6;;;1.2;69.2
68873;BME280;55907;50.806;12.882;2024-01-15T14:30:16;954.6;;;1.1;69.4
68873;BME280;55907;50.806;12.882;2024-01-15T14:33:17;954.5;;;1.0;70.2
68873;BME280;55907;50.806;12.882;2024-01-15T14:36:17;954.6;;;1.0;70.5
68873;BME280;55907;50.806;12.882;2024-01-15T14:39:18;954.6;;;1.0;70.6
68873;BME280;55907;50.806;12.882;2024-01-15T14:42:19;954.8;;;0.9;71.2
68873;BME280;55907;50.806;12.882;2024-01-15T14:45:20;954.7;;;0.8;71.7
68873;BME280;55907;50.806;12.882;2024-01-15T14:48:21;954.8;;;1.0;71.2
68873;BME280;55907;50.806;12.882;2024-01-15T14:51:22;954.8;;;0.9;71.6
68873;BME280;55907;50.806;12.882;2024-01-15T14:54:22;954.9;;;0.9;72.0
68873;BME280;55907;50.806;12.882;2024-01-15T15:00:24;954.9;;;0.8;72.6
68873;BME280;55907;50.806;12.882;2024-01-15T15:03:25;954.8;;;0.8;73.0
68873;BME280;55907;50.806;12.882;2024-01-15T15:06:26;954.8;;;0.8;73.4
68873;BME280;55907;50.806;12.882;2024-01-15T15:09:27;954.9;;;0.7;75.6
68873;BME280;55907;50.806;12.882;2024-01-15T15:12:27;955.0;;;0.6;77.2
68873;BME280;55907;50.806;12.882;2024-01-15T15:15:28;955.0;;;0.6;78.0
68873;BME280;55907;50.806;12.882;2024-01-15T15:18:29;955.0;;;0.6;78.4
68873;BME280;55907;50.806;12.882;2024-01-15T15:21:30;955.0;;;0.6;79.9
68873;BME280;55907;50.806;12.882;2024-01-15T15:24:31;955.0;;;0.4;81.5
68873;BME280;55907;50.806;12.882;2024-01-15T15:27:32;955.0;;;0.5;79.9
68873;BME280;55907;50.806;12.882;2024-01-15T15:30:33;955.1;;;0.5;78.6
68873;BME280;55907;50.806;12.882;2024-01-15T15:33:33;955.1;;;0.5;77.6
68873;BME280;55907;50.806;12.882;2024-01-15T15:36:34;955.1;;;0.6;77.0
68873;BME280;55907;50.806;12.882;2024-01-15T15:39:35;955.2;;;0.4;80.9
68873;BME280;55907;50.806;12.882;2024-01-15T15:42:36;955.2;;;0.5;78.4
68873;BME280;55907;50.806;12.882;2024-01-15T15:45:37;955.2;;;0.4;78.3
68873;BME280;55907;50.806;12.882;2024-01-15T15:48:37;955.2;;;0.4;77.5
68873;BME280;55907;50.806;12.882;2024-01-15T15:51:40;955.2;;;0.4;77.9
68873;BME280;55907;50.806;12.882;2024-01-15T15:54:39;955.2;;;0.3;78.0
68873;BME280;55907;50.806;12.882;2024-01-15T15:57:40;955.3;;;0.4;78.1
68873;BME280;55907;50.806;12.882;2024-01-15T16:00:41;955.3;;;0.5;77.6
68873;BME280;55907;50.806;12.882;2024-01-15T16:03:42;955.4;;;0.4;77.9
68873;BME280;55907;50.806;12.882;2024-01-15T16:06:42;955.3;;;0.5;78.0
68873;BME280;55907;50.806;12.882;2024-01-15T16:09:43;955.4;;;0.5;78.2
68873;BME280;55907;50.806;12.882;2024-01-15T16:12:44;955.4;;;0.5;78.2
68873;BME280;55907;50.806;12.882;2024-01-15T16:15:45;955.4;;;0.6;77.8
68873;BME280;55907;50.806;12.882;2024-01-15T16:18:46;955.4;;;0.6;77.5
68873;BME280;55907;50.806;12.882;2024-01-15T16:21:47;955.4;;;0.6;77.8
68873;BME280;55907;50.806;12.882;2024-01-15T16:24:47;955.4;;;0.6;77.9
68873;BME280;55907;50.806;12.882;2024-01-15T16:27:48;955.4;;;0.7;77.8
68873;BME280;55907;50.806;12.882;2024-01-15T16:30:49;955.4;;;0.7;77.6
68873;BME280;55907;50.806;12.882;2024-01-15T16:33:50;955.5;;;0.8;77.5
68873;BME280;55907;50.806;12.882;2024-01-15T16:36:50;955.5;;;0.8;77.3
68873;BME280;55907;50.806;12.882;2024-01-15T16:39:51;955.5;;;0.7;77.3
68873;BME280;55907;50.806;12.882;2024-01-15T16:42:52;955.6;;;0.8;76.9
68873;BME280;55907;50.806;12.882;2024-01-15T16:45:53;955.6;;;0.9;76.6
68873;BME280;55907;50.806;12.882;2024-01-15T16:48:54;955.5;;;0.9;76.4
68873;BME280;55907;50.806;12.882;2024-01-15T16:51:55;955.6;;;0.8;76.6
68873;BME280;55907;50.806;12.882;2024-01-15T16:54:55;955.6;;;0.8;77.2
68873;BME280;55907;50.806;12.882;2024-01-15T16:57:56;955.7;;;0.7;79.0
68873;BME280;55907;50.806;12.882;2024-01-15T17:00:57;955.6;;;0.7;79.8
68873;BME280;55907;50.806;12.882;2024-01-15T17:03:58;955.6;;;0.8;79.5
68873;BME280;55907;50.806;12.882;2024-01-15T17:06:59;955.6;;;0.7;79.2
68873;BME280;55907;50.806;12.882;2024-01-15T17:10:00;955.6;;;0.7;79.5
68873;BME280;55907;50.806;12.882;2024-01-15T17:13:00;955.7;;;0.7;78.6
68873;BME280;55907;50.806;12.882;2024-01-15T17:16:02;955.5;;;0.6;78.7
68873;BME280;55907;50.806;12.882;2024-01-15T17:19:02;955.7;;;0.7;78.2
68873;BME280;55907;50.806;12.882;2024-01-15T17:22:03;955.7;;;0.7;78.2
68873;BME280;55907;50.806;12.882;2024-01-15T17:25:04;955.7;;;0.7;78.1